Time;durP1;ratioP1;P1;durP2;ratioP2;P2;SDS_P1;SDS_P2;PMS_P1;PMS_P2;Temp;Humidity;BMP_temperature;BMP_pressure;BME280_temperature;BME280_humidity;BME280_pressure;Samples;Min_cycle;Max_cycle;Signal;HPM_P1;HPM_P2
2023/12/12 00:00:14;;;;;;;4.63;2.50;;;;;21.50;99718.00;;;;2070156;28;20229;-69
2023/12/12 00:01:24;;;;;;;4.90;2.90;;;;;21.50;99714.00;;;;2086117;28;20267;-69
2023/12/12 00:02:25;;;;;;;6.63;3.10;;;;;21.50;99718.00;;;;2082572;28;20970;-69
2023/12/12 00:03:25;;;;;;;6.07;3.03;;;;;21.50;99721.00;;;;2080670;28;20218;-69
2023/12/12 00:04:25;;;;;;;4.07;2.37;;;;;21.40;99722.00;;;;2079782;28;20812;-69
2023/12/12 00:05:25;;;;;;;5.20;2.63;;;;;21.50;99711.00;;;;2071093;28;20851;-69
2023/12/12 00:06:26;;;;;;;4.90;2.50;;;;;21.40;99707.00;;;;2080634;28;20765;-69
2023/12/12 00:07:26;;;;;;;6.00;2.70;;;;;21.50;99714.00;;;;2079660;28;20309;-69
2023/12/12 00:08:27;;;;;;;8.57;2.47;;;;;21.40;99702.00;;;;2080282;28;20567;-69
2023/12/12 00:09:27;;;;;;;3.00;2.07;;;;;21.40;99715.00;;;;2079345;28;20622;-69
2023/12/12 00:10:27;;;;;;;4.80;2.50;;;;;21.40;99713.00;;;;2071029;28;20587;-69
2023/12/12 00:11:28;;;;;;;5.30;3.13;;;;;21.40;99716.00;;;;2079900;28;20689;-69
2023/12/12 00:12:28;;;;;;;4.80;2.50;;;;;21.40;99713.00;;;;2080286;28;20972;-69
2023/12/12 00:13:28;;;;;;;5.10;2.77;;;;;21.40;99717.00;;;;2080179;28;20210;-69
2023/12/12 00:14:29;;;;;;;4.00;2.30;;;;;21.40;99710.00;;;;2078400;28;20215;-69
2023/12/12 00:15:29;;;;;;;6.20;3.10;;;;;21.40;99706.00;;;;2070889;28;20213;-69
2023/12/12 00:16:29;;;;;;;6.07;2.70;;;;;21.40;99708.00;;;;2079861;28;20263;-69
2023/12/12 00:17:29;;;;;;;3.60;2.20;;;;;21.40;99718.00;;;;2080409;28;20255;-69
2023/12/12 00:18:32;;;;;;;2.80;1.90;;;;;21.40;99722.00;;;;2079904;28;20237;-69
2023/12/12 00:19:33;;;;;;;5.57;2.53;;;;;21.40;99715.00;;;;2079977;28;20220;-69
2023/12/12 00:20:33;;;;;;;6.33;2.83;;;;;21.40;99709.00;;;;2070932;28;20700;-69
2023/12/12 00:21:33;;;;;;;3.20;2.30;;;;;21.40;99685.00;;;;2083578;28;20246;-69
2023/12/12 00:22:34;;;;;;;3.87;2.00;;;;;21.40;99715.00;;;;2080393;28;20217;-69
2023/12/12 00:23:34;;;;;;;4.17;2.40;;;;;21.40;99709.00;;;;2079994;28;20620;-69
2023/12/12 00:24:35;;;;;;;4.47;2.27;;;;;21.40;99712.00;;;;2079573;28;20277;-69
2023/12/12 00:25:35;;;;;;;4.47;2.77;;;;;21.40;99706.00;;;;2069434;28;20213;-69
2023/12/12 00:26:35;;;;;;;3.07;1.80;;;;;21.40;99709.00;;;;2083487;28;20241;-69
2023/12/12 00:27:36;;;;;;;5.03;2.30;;;;;21.40;99698.00;;;;2080223;28;20226;-69
2023/12/12 00:28:36;;;;;;;7.37;2.80;;;;;21.40;99704.00;;;;2079208;28;20212;-69
2023/12/12 00:29:38;;;;;;;6.87;2.00;;;;;21.40;99702.00;;;;2080210;28;20681;-69
2023/12/12 00:30:38;;;;;;;3.80;2.03;;;;;21.40;99694.00;;;;2069696;28;20347;-69
2023/12/12 00:31:39;;;;;;;5.30;2.30;;;;;21.40;99704.00;;;;2080437;28;20221;-69
2023/12/12 00:32:39;;;;;;;5.10;2.47;;;;;21.40;99691.00;;;;2080098;28;20233;-69
2023/12/12 00:33:39;;;;;;;4.10;2.03;;;;;21.40;99694.00;;;;2077695;28;20570;-69
2023/12/12 00:34:40;;;;;;;5.07;2.20;;;;;21.30;99696.00;;;;2080401;28;20556;-69
2023/12/12 00:35:40;;;;;;;5.70;2.63;;;;;21.40;99707.00;;;;2070093;28;20724;-69
2023/12/12 00:36:41;;;;;;;3.60;1.90;;;;;21.40;99700.00;;;;2079987;28;20206;-69
2023/12/12 00:37:41;;;;;;;5.10;2.03;;;;;21.40;99695.00;;;;2079851;28;20223;-69
2023/12/12 00:38:41;;;;;;;6.40;2.27;;;;;21.40;99703.00;;;;2079963;28;20241;-69
2023/12/12 00:39:42;;;;;;;4.77;2.10;;;;;21.30;99703.00;;;;2080299;28;20213;-69
2023/12/12 00:40:51;;;;;;;4.80;2.30;;;;;21.30;99702.00;;;;2069819;28;20240;-69
2023/12/12 00:41:52;;;;;;;4.85;2.10;;;;;21.30;99704.00;;;;2079977;28;20206;-69
2023/12/12 00:42:52;;;;;;;6.13;2.27;;;;;21.30;99712.00;;;;2079452;28;20208;-69
2023/12/12 00:43:52;;;;;;;4.10;2.53;;;;;21.40;99708.00;;;;2080278;28;20234;-69
2023/12/12 00:44:53;;;;;;;3.80;2.13;;;;;21.30;99710.00;;;;2067703;28;20213;-69
2023/12/12 00:45:53;;;;;;;5.60;2.40;;;;;21.30;99712.00;;;;2080276;28;20330;-69
2023/12/12 00:46:53;;;;;;;9.27;2.13;;;;;21.30;99707.00;;;;2080282;28;20658;-69
2023/12/12 00:47:54;;;;;;;5.73;2.23;;;;;21.40;99710.00;;;;2077678;28;20259;-69
2023/12/12 00:48:54;;;;;;;3.90;2.13;;;;;21.30;99703.00;;;;2080064;28;20201;-69
2023/12/12 00:49:54;;;;;;;3.80;1.70;;;;;21.30;99703.00;;;;2070121;28;20330;-69
2023/12/12 00:50:55;;;;;;;4.10;2.10;;;;;21.30;99720.00;;;;2080222;28;21114;-69
2023/12/12 00:51:55;;;;;;;3.57;1.93;;;;;21.30;99710.00;;;;2079775;28;20268;-69
2023/12/12 00:52:56;;;;;;;4.03;2.03;;;;;21.30;99703.00;;;;2079777;28;20212;-69
2023/12/12 00:53:56;;;;;;;4.10;2.00;;;;;21.30;99702.00;;;;2080237;28;20205;-69
2023/12/12 00:54:58;;;;;;;4.70;2.23;;;;;21.30;99704.00;;;;2069635;28;20224;-69
2023/12/12 00:55:58;;;;;;;5.22;1.92;;;;;21.30;99704.00;;;;2079389;28;20225;-69
2023/12/12 00:56:58;;;;;;;4.50;2.20;;;;;21.30;99710.00;;;;2077965;28;20213;-69
2023/12/12 00:57:59;;;;;;;4.63;1.77;;;;;21.30;99718.00;;;;2080190;28;20286;-69
2023/12/12 00:58:59;;;;;;;4.73;1.67;;;;;21.30;99703.00;;;;2079666;28;20220;-69
2023/12/12 00:59:59;;;;;;;4.40;1.90;;;;;21.30;99711.00;;;;2065666;28;20226;-69
2023/12/12 01:01:00;;;;;;;3.50;1.90;;;;;21.30;99715.00;;;;2077991;28;20219;-69
2023/12/12 01:02:00;;;;;;;5.60;1.87;;;;;21.30;99708.00;;;;2078876;28;20217;-69
2023/12/12 01:03:00;;;;;;;8.80;2.37;;;;;21.30;99716.00;;;;2079904;28;20740;-69
2023/12/12 01:04:01;;;;;;;5.00;1.67;;;;;21.30;99716.00;;;;2079523;28;20318;-69
2023/12/12 01:05:01;;;;;;;3.80;2.00;;;;;21.30;99711.00;;;;2068082;28;20213;-69
2023/12/12 01:06:02;;;;;;;4.90;1.80;;;;;21.30;99710.00;;;;2080011;28;20615;-69
2023/12/12 01:07:02;;;;;;;2.70;1.40;;;;;21.30;99710.00;;;;2079489;28;20587;-69
2023/12/12 01:08:03;;;;;;;4.70;2.10;;;;;21.30;99712.00;;;;2079548;28;20470;-69
2023/12/12 01:09:03;;;;;;;3.43;1.90;;;;;21.30;99713.00;;;;2079314;28;20259;-69
2023/12/12 01:10:04;;;;;;;4.33;1.53;;;;;21.30;99708.00;;;;2070584;28;20228;-69
2023/12/12 01:11:04;;;;;;;3.83;1.60;;;;;21.30;99707.00;;;;2079406;28;20221;-69
2023/12/12 01:12:05;;;;;;;3.50;1.70;;;;;21.20;99707.00;;;;2079649;28;20224;-69
2023/12/12 01:13:05;;;;;;;3.00;1.80;;;;;21.20;99709.00;;;;2079727;28;20209;-69
2023/12/12 01:14:05;;;;;;;4.17;1.70;;;;;21.20;99705.00;;;;2079524;28;20237;-69
2023/12/12 01:15:06;;;;;;;3.07;1.80;;;;;21.20;99699.00;;;;2070529;28;20282;-69
2023/12/12 01:16:07;;;;;;;4.50;2.20;;;;;21.20;99701.00;;;;2079242;28;20236;-69
2023/12/12 01:17:07;;;;;;;4.03;1.80;;;;;21.20;99704.00;;;;2079898;28;20990;-69
2023/12/12 01:18:08;;;;;;;4.60;1.60;;;;;21.20;99706.00;;;;2079272;28;20226;-69
2023/12/12 01:19:08;;;;;;;3.00;1.70;;;;;21.20;99703.00;;;;2079438;28;20735;-69
2023/12/12 01:20:09;;;;;;;3.60;2.17;;;;;21.20;99692.00;;;;2070535;28;20336;-69
2023/12/12 01:21:09;;;;;;;5.47;2.27;;;;;21.20;99707.00;;;;2079647;28;20210;-69
2023/12/12 01:22:09;;;;;;;3.60;1.90;;;;;21.20;99702.00;;;;2077897;28;20686;-69
2023/12/12 01:23:10;;;;;;;6.40;1.90;;;;;21.20;99706.00;;;;2073867;28;20599;-69
2023/12/12 01:24:10;;;;;;;3.93;1.80;;;;;21.20;99707.00;;;;2079208;28;20608;-69
2023/12/12 01:25:10;;;;;;;3.20;1.70;;;;;21.20;99710.00;;;;2070289;28;20284;-69
2023/12/12 01:26:11;;;;;;;4.23;1.53;;;;;21.20;99708.00;;;;2077548;28;20221;-69
2023/12/12 01:27:11;;;;;;;6.20;1.80;;;;;21.20;99710.00;;;;2078716;28;20221;-69
2023/12/12 01:28:11;;;;;;;2.70;1.60;;;;;21.20;99709.00;;;;2078920;28;20213;-69
2023/12/12 01:29:14;;;;;;;4.43;1.70;;;;;21.20;99673.00;;;;2079595;28;20684;-69
2023/12/12 01:30:15;;;;;;;5.55;2.25;;;;;21.20;99709.00;;;;2069983;28;20245;-69
2023/12/12 01:31:15;;;;;;;4.27;1.53;;;;;21.20;99711.00;;;;2080074;28;20248;-69
2023/12/12 01:32:15;;;;;;;4.83;2.40;;;;;21.20;99709.00;;;;2079504;28;20232;-69
2023/12/12 01:33:16;;;;;;;4.20;1.57;;;;;21.20;99710.00;;;;2075639;28;20218;-69
2023/12/12 01:34:16;;;;;;;4.27;1.63;;;;;21.20;99707.00;;;;2080004;28;20243;-69
2023/12/12 01:35:22;;;;;;;4.50;2.07;;;;;21.20;99710.00;;;;2073663;28;20282;-69
2023/12/12 01:36:23;;;;;;;4.88;2.13;;;;;21.20;99706.00;;;;2087240;28;20307;-69
2023/12/12 01:37:23;;;;;;;5.40;2.10;;;;;21.20;99705.00;;;;2083745;28;20598;-69
2023/12/12 01:38:23;;;;;;;4.50;1.80;;;;;21.20;99699.00;;;;2080700;28;20744;-69
2023/12/12 01:39:24;;;;;;;4.10;1.80;;;;;21.20;99701.00;;;;2079031;28;20692;-69
2023/12/12 01:40:24;;;;;;;8.47;2.20;;;;;21.20;99712.00;;;;2070435;28;20256;-69
2023/12/12 01:41:25;;;;;;;3.77;1.40;;;;;21.20;99710.00;;;;2079984;28;20210;-69
2023/12/12 01:42:25;;;;;;;5.60;1.87;;;;;21.20;99717.00;;;;2081392;28;20255;-69
2023/12/12 01:43:26;;;;;;;4.83;2.47;;;;;21.20;99705.00;;;;2081614;28;20460;-69
2023/12/12 01:44:26;;;;;;;3.60;1.67;;;;;21.20;99711.00;;;;2076928;28;20264;-69
2023/12/12 01:45:28;;;;;;;4.43;1.63;;;;;21.20;99707.00;;;;2070447;28;20832;-69
2023/12/12 01:46:28;;;;;;;3.15;1.63;;;;;21.20;99709.00;;;;2079750;28;20221;-69
2023/12/12 01:47:29;;;;;;;5.00;1.93;;;;;21.20;99706.00;;;;2080151;28;20229;-69
2023/12/12 01:48:29;;;;;;;8.03;2.60;;;;;21.20;99713.00;;;;2078788;28;20320;-69
2023/12/12 01:49:29;;;;;;;6.27;2.60;;;;;21.10;99703.00;;;;2081783;28;20213;-69
2023/12/12 01:50:30;;;;;;;3.80;1.70;;;;;21.10;99666.00;;;;2069938;28;20279;-69
2023/12/12 01:51:30;;;;;;;4.70;1.63;;;;;21.10;99706.00;;;;2059211;28;20219;-69
2023/12/12 01:52:30;;;;;;;4.33;1.60;;;;;21.20;99697.00;;;;2069805;28;20304;-69
2023/12/12 01:53:33;;;;;;;3.87;2.00;;;;;21.10;99701.00;;;;2078556;28;20218;-69
2023/12/12 01:54:35;;;;;;;4.97;1.83;;;;;21.10;99700.00;;;;2079393;28;20225;-69
2023/12/12 01:55:36;;;;;;;4.45;1.77;;;;;21.10;99701.00;;;;2067670;28;20248;-69
2023/12/12 01:56:36;;;;;;;6.53;2.00;;;;;21.10;99701.00;;;;2080772;28;20208;-69
2023/12/12 01:57:36;;;;;;;5.40;1.70;;;;;21.10;99699.00;;;;2069300;28;20585;-69
2023/12/12 01:58:38;;;;;;;3.37;1.70;;;;;21.10;99698.00;;;;2066128;28;20297;-69
2023/12/12 01:59:38;;;;;;;5.13;1.70;;;;;21.10;99652.00;;;;2063265;28;20225;-69
2023/12/12 02:00:38;;;;;;;6.20;2.00;;;;;21.10;99698.00;;;;2069115;28;20255;-69
2023/12/12 02:01:38;;;;;;;3.87;1.60;;;;;21.10;99693.00;;;;2078344;28;20665;-69
2023/12/12 02:02:39;;;;;;;4.40;1.80;;;;;21.10;99693.00;;;;2070982;28;20637;-69
2023/12/12 02:03:39;;;;;;;3.10;1.80;;;;;21.10;99689.00;;;;2054799;28;20683;-69
2023/12/12 02:04:40;;;;;;;4.17;1.90;;;;;21.10;99692.00;;;;2070647;28;20732;-69
2023/12/12 02:05:40;;;;;;;7.07;1.53;;;;;21.10;99690.00;;;;2069386;28;20213;-69
2023/12/12 02:06:41;;;;;;;3.97;1.93;;;;;21.10;99696.00;;;;2078293;28;20209;-69
2023/12/12 02:07:41;;;;;;;4.97;2.00;;;;;21.10;99685.00;;;;2079084;28;20574;-69
2023/12/12 02:08:42;;;;;;;5.80;2.57;;;;;21.10;99690.00;;;;2078416;28;20214;-69
2023/12/12 02:09:43;;;;;;;4.53;1.80;;;;;21.10;99639.00;;;;2082724;28;20217;-68
2023/12/12 02:10:43;;;;;;;4.57;1.83;;;;;21.10;99687.00;;;;2061168;28;20221;-68
2023/12/12 02:11:44;;;;;;;4.37;1.70;;;;;21.10;99683.00;;;;2070023;28;20619;-68
2023/12/12 02:12:44;;;;;;;4.10;1.50;;;;;21.10;99664.00;;;;2079188;28;20290;-68
2023/12/12 02:13:45;;;;;;;5.43;1.80;;;;;21.10;99690.00;;;;2069973;28;20296;-68
2023/12/12 02:14:45;;;;;;;4.03;1.70;;;;;21.10;99680.00;;;;2072574;28;20685;-68
2023/12/12 02:15:45;;;;;;;4.80;1.77;;;;;21.10;99695.00;;;;2074928;28;20221;-68
2023/12/12 02:16:46;;;;;;;5.90;2.17;;;;;21.10;99685.00;;;;2078432;28;20209;-68
2023/12/12 02:17:46;;;;;;;3.73;1.80;;;;;21.10;99693.00;;;;2079162;28;20206;-69
2023/12/12 02:18:46;;;;;;;3.40;1.90;;;;;21.10;99686.00;;;;2078884;28;20216;-69
2023/12/12 02:19:47;;;;;;;3.30;1.57;;;;;21.10;99689.00;;;;2069350;28;20214;-69
2023/12/12 02:20:47;;;;;;;5.40;1.97;;;;;21.10;99693.00;;;;2078952;28;20252;-69
2023/12/12 02:21:47;;;;;;;3.57;1.80;;;;;21.10;99694.00;;;;2077124;28;20210;-69
2023/12/12 02:22:48;;;;;;;3.47;1.60;;;;;21.00;99639.00;;;;2078272;28;20291;-69
2023/12/12 02:23:48;;;;;;;3.90;2.30;;;;;21.10;99683.00;;;;2078262;28;20288;-69
2023/12/12 02:24:48;;;;;;;6.43;2.13;;;;;21.00;99640.00;;;;2069050;28;20222;-69
2023/12/12 02:25:49;;;;;;;4.63;1.83;;;;;21.00;99626.00;;;;2078119;28;20574;-69
2023/12/12 02:26:50;;;;;;;3.30;1.90;;;;;21.00;99693.00;;;;2070788;28;20210;-69
2023/12/12 02:27:50;;;;;;;5.53;1.93;;;;;21.00;99648.00;;;;2078531;28;20206;-69
2023/12/12 02:28:50;;;;;;;3.10;1.30;;;;;21.00;99687.00;;;;2059729;28;20681;-69
2023/12/12 02:29:51;;;;;;;4.87;1.80;;;;;21.10;99699.00;;;;2051920;28;20280;-69
2023/12/12 02:30:51;;;;;;;3.60;1.57;;;;;21.00;99686.00;;;;2071318;28;20218;-69
2023/12/12 02:31:52;;;;;;;4.30;1.70;;;;;21.00;99699.00;;;;2080568;28;20214;-69
2023/12/12 02:32:52;;;;;;;4.20;1.80;;;;;21.00;99694.00;;;;2079254;28;20260;-69
2023/12/12 02:33:52;;;;;;;3.20;1.60;;;;;21.00;99694.00;;;;2080667;28;20205;-69
2023/12/12 02:34:53;;;;;;;2.97;1.50;;;;;21.00;99695.00;;;;2071089;28;20271;-69
2023/12/12 02:35:53;;;;;;;3.10;1.60;;;;;21.00;99692.00;;;;2081112;28;20235;-69
2023/12/12 02:36:53;;;;;;;5.77;2.07;;;;;21.00;99705.00;;;;2078661;28;20208;-69
2023/12/12 02:37:53;;;;;;;4.07;1.57;;;;;21.00;99688.00;;;;2080636;28;20210;-69
2023/12/12 02:38:54;;;;;;;5.20;1.70;;;;;21.00;99702.00;;;;2080834;28;20206;-69
2023/12/12 02:39:54;;;;;;;4.10;1.80;;;;;21.00;99694.00;;;;2069996;28;20217;-69
2023/12/12 02:40:54;;;;;;;5.70;2.07;;;;;21.00;99697.00;;;;2088751;28;20209;-69
2023/12/12 02:41:55;;;;;;;5.97;1.73;;;;;21.00;99699.00;;;;2085051;28;20215;-69
2023/12/12 02:42:55;;;;;;;3.30;1.70;;;;;21.00;99699.00;;;;2081117;28;20217;-69
2023/12/12 02:43:55;;;;;;;4.70;2.13;;;;;21.00;99696.00;;;;2079625;28;20368;-69
2023/12/12 02:44:56;;;;;;;6.00;2.37;;;;;21.00;99695.00;;;;2071601;28;20225;-69
2023/12/12 02:45:57;;;;;;;8.25;2.03;;;;;21.00;99695.00;;;;2088629;28;20220;-69
2023/12/12 02:46:57;;;;;;;6.40;1.67;;;;;21.00;99693.00;;;;2086194;28;20205;-69
2023/12/12 02:47:58;;;;;;;3.80;1.70;;;;;21.00;99700.00;;;;2081093;28;20267;-69
2023/12/12 02:48:58;;;;;;;5.13;1.60;;;;;21.00;99702.00;;;;2080224;28;20206;-69
2023/12/12 02:49:58;;;;;;;4.90;2.27;;;;;21.00;99690.00;;;;2072568;28;20244;-69
2023/12/12 02:50:58;;;;;;;4.00;1.70;;;;;21.00;99699.00;;;;2088481;28;20200;-69
2023/12/12 02:51:59;;;;;;;4.80;1.67;;;;;21.00;99696.00;;;;2082187;28;20209;-69
2023/12/12 02:52:59;;;;;;;4.63;1.90;;;;;21.00;99692.00;;;;2081145;28;20235;-69
2023/12/12 02:53:59;;;;;;;3.87;1.70;;;;;21.00;99695.00;;;;2080937;28;20209;-69
2023/12/12 02:55:00;;;;;;;5.23;1.50;;;;;21.00;99695.00;;;;2073013;28;20204;-69
2023/12/12 02:56:00;;;;;;;5.53;1.87;;;;;21.00;99682.00;;;;2087624;28;20204;-69
2023/12/12 02:57:00;;;;;;;4.20;1.83;;;;;21.00;99699.00;;;;2085258;28;20314;-69
2023/12/12 02:58:01;;;;;;;3.57;1.70;;;;;21.00;99700.00;;;;2080733;28;20205;-69
2023/12/12 02:59:01;;;;;;;3.70;1.40;;;;;21.00;99694.00;;;;2080225;28;20232;-69
2023/12/12 03:00:03;;;;;;;2.77;1.60;;;;;21.00;99690.00;;;;2063061;28;20206;-69
2023/12/12 03:01:03;;;;;;;6.47;2.40;;;;;21.00;99696.00;;;;2087032;28;20232;-69
2023/12/12 03:02:04;;;;;;;5.70;1.93;;;;;21.00;99695.00;;;;2086170;28;20215;-69
2023/12/12 03:03:04;;;;;;;5.03;1.67;;;;;21.00;99697.00;;;;2080968;28;20453;-69
2023/12/12 03:04:04;;;;;;;5.20;1.97;;;;;21.00;99696.00;;;;2080227;28;20438;-69
2023/12/12 03:05:05;;;;;;;6.20;1.87;;;;;21.00;99695.00;;;;2070104;28;20304;-69
2023/12/12 03:06:07;;;;;;;3.80;1.70;;;;;21.00;99701.00;;;;2080903;28;20585;-69
2023/12/12 03:07:07;;;;;;;4.28;1.95;;;;;21.00;99689.00;;;;2078532;28;20301;-69
2023/12/12 03:08:07;;;;;;;6.13;2.00;;;;;21.00;99705.00;;;;2080866;28;20206;-69
2023/12/12 03:09:07;;;;;;;4.83;2.10;;;;;21.00;99699.00;;;;2079631;28;20232;-69
2023/12/12 03:10:08;;;;;;;4.60;2.00;;;;;21.00;99704.00;;;;2071312;28;20217;-69
2023/12/12 03:11:08;;;;;;;4.57;1.97;;;;;21.00;99704.00;;;;2080770;28;20240;-69
2023/12/12 03:12:09;;;;;;;4.93;1.70;;;;;21.00;99706.00;;;;2078866;28;20539;-69
2023/12/12 03:13:09;;;;;;;4.17;1.60;;;;;21.00;99694.00;;;;2080834;28;20201;-69
2023/12/12 03:14:09;;;;;;;4.00;1.77;;;;;20.90;99703.00;;;;2080096;28;20256;-69
2023/12/12 03:15:10;;;;;;;5.50;2.03;;;;;21.00;99692.00;;;;2069231;28;20237;-69
2023/12/12 03:16:11;;;;;;;3.42;1.75;;;;;20.90;99700.00;;;;2080116;28;20247;-69
2023/12/12 03:17:11;;;;;;;6.27;1.80;;;;;21.00;99703.00;;;;2079670;28;20688;-69
2023/12/12 03:18:12;;;;;;;4.93;1.63;;;;;20.90;99700.00;;;;2080824;28;20292;-69
2023/12/12 03:19:12;;;;;;;4.70;1.87;;;;;20.90;99705.00;;;;2065823;28;20221;-69
2023/12/12 03:20:12;;;;;;;4.20;1.33;;;;;20.90;99697.00;;;;2070705;28;20228;-69
2023/12/12 03:21:13;;;;;;;5.20;1.97;;;;;20.90;99684.00;;;;2079841;28;20213;-69
2023/12/12 03:22:13;;;;;;;5.93;1.60;;;;;20.90;99700.00;;;;2080721;28;20210;-69
2023/12/12 03:23:13;;;;;;;4.27;1.97;;;;;20.90;99695.00;;;;2080044;28;20220;-69
2023/12/12 03:24:14;;;;;;;3.57;1.73;;;;;20.90;99695.00;;;;2083261;28;20218;-69
2023/12/12 03:25:14;;;;;;;4.47;1.47;;;;;20.90;99699.00;;;;2070959;28;20268;-69
2023/12/12 03:26:14;;;;;;;3.53;1.50;;;;;20.90;99694.00;;;;2080570;28;20267;-69
2023/12/12 03:27:14;;;;;;;4.50;1.60;;;;;20.90;99700.00;;;;2079896;28;20243;-69
2023/12/12 03:28:15;;;;;;;4.97;1.50;;;;;20.90;99699.00;;;;2079973;28;20213;-69
2023/12/12 03:29:15;;;;;;;4.73;2.03;;;;;20.90;99700.00;;;;2080392;28;20241;-69
2023/12/12 03:30:15;;;;;;;2.90;1.50;;;;;20.90;99697.00;;;;2070806;28;20228;-69
2023/12/12 03:31:16;;;;;;;6.63;2.00;;;;;20.90;99699.00;;;;2079409;28;20229;-69
2023/12/12 03:32:16;;;;;;;5.67;1.63;;;;;20.90;99704.00;;;;2080305;28;20252;-69
2023/12/12 03:33:16;;;;;;;5.40;2.20;;;;;20.90;99699.00;;;;2080350;28;20279;-69
2023/12/12 03:34:17;;;;;;;5.00;2.23;;;;;20.90;99700.00;;;;2080269;28;20221;-69
2023/12/12 03:35:17;;;;;;;5.60;2.10;;;;;20.90;99699.00;;;;2069867;28;20220;-69
2023/12/12 03:36:18;;;;;;;4.20;1.97;;;;;20.90;99694.00;;;;2084460;28;20249;-69
2023/12/12 03:37:18;;;;;;;4.83;1.67;;;;;20.90;99698.00;;;;2076473;28;20771;-69
2023/12/12 03:38:18;;;;;;;5.70;2.23;;;;;20.90;99699.00;;;;2080482;28;20685;-69
2023/12/12 03:39:19;;;;;;;5.20;1.83;;;;;20.90;99699.00;;;;2080329;28;20225;-69
2023/12/12 03:40:19;;;;;;;5.37;1.87;;;;;20.90;99697.00;;;;2070251;28;20253;-69
2023/12/12 03:41:20;;;;;;;6.27;1.73;;;;;20.90;99688.00;;;;2080559;28;20229;-69
2023/12/12 03:42:20;;;;;;;3.80;1.90;;;;;20.90;99691.00;;;;2079443;28;20217;-69
2023/12/12 03:43:20;;;;;;;5.07;1.97;;;;;20.90;99689.00;;;;2080767;28;20220;-69
2023/12/12 03:44:21;;;;;;;4.13;1.90;;;;;20.90;99681.00;;;;2080058;28;20217;-69
2023/12/12 03:45:21;;;;;;;8.50;2.17;;;;;20.90;99674.00;;;;2074371;28;20223;-69
2023/12/12 03:46:21;;;;;;;3.90;1.70;;;;;20.90;99680.00;;;;2080723;28;20229;-69
2023/12/12 03:47:22;;;;;;;4.93;1.63;;;;;20.90;99670.00;;;;2079685;28;20228;-69
2023/12/12 03:48:22;;;;;;;4.53;1.70;;;;;20.90;99677.00;;;;2080430;28;20217;-69
2023/12/12 03:49:22;;;;;;;3.60;1.47;;;;;20.90;99678.00;;;;2083461;28;20223;-69
2023/12/12 03:50:23;;;;;;;6.33;2.10;;;;;20.90;99675.00;;;;2073869;28;20218;-69
2023/12/12 03:51:23;;;;;;;6.80;2.63;;;;;20.90;99676.00;;;;2078293;28;20318;-69
2023/12/12 03:52:23;;;;;;;3.80;1.60;;;;;20.90;99674.00;;;;2080481;28;20221;-69
2023/12/12 03:53:24;;;;;;;5.97;2.20;;;;;20.90;99668.00;;;;2080507;28;20299;-69
2023/12/12 03:54:25;;;;;;;5.20;2.43;;;;;20.90;99666.00;;;;2080094;28;20377;-69
2023/12/12 03:55:25;;;;;;;5.32;2.05;;;;;20.90;99669.00;;;;2070805;28;20302;-69
2023/12/12 03:56:26;;;;;;;4.47;2.40;;;;;20.90;99666.00;;;;2080081;28;20273;-69
2023/12/12 03:57:26;;;;;;;3.80;2.10;;;;;20.90;99671.00;;;;2080449;28;20273;-69
2023/12/12 03:58:27;;;;;;;4.17;1.53;;;;;20.90;99673.00;;;;2079805;28;20269;-69
2023/12/12 03:59:27;;;;;;;5.00;1.90;;;;;20.90;99674.00;;;;2080432;28;20245;-69
2023/12/12 04:00:27;;;;;;;4.17;1.60;;;;;20.90;99671.00;;;;2071100;28;20225;-69
2023/12/12 04:01:27;;;;;;;10.00;2.23;;;;;20.90;99674.00;;;;2079355;28;20229;-69
2023/12/12 04:02:28;;;;;;;3.70;1.70;;;;;20.90;99658.00;;;;2077847;28;20232;-69
2023/12/12 04:03:30;;;;;;;7.10;1.60;;;;;20.90;99671.00;;;;2080619;28;20225;-69
2023/12/12 04:04:31;;;;;;;5.05;1.98;;;;;20.90;99661.00;;;;2079748;28;20468;-69
2023/12/12 04:05:31;;;;;;;3.83;1.70;;;;;20.90;99662.00;;;;2070898;28;20218;-69
2023/12/12 04:06:32;;;;;;;5.50;1.80;;;;;20.90;99671.00;;;;2080091;28;20218;-69
2023/12/12 04:07:32;;;;;;;6.07;2.00;;;;;20.80;99661.00;;;;2079870;28;20224;-69
2023/12/12 04:08:32;;;;;;;5.50;1.90;;;;;20.80;99667.00;;;;2079329;28;20226;-69
2023/12/12 04:09:33;;;;;;;5.30;1.73;;;;;20.80;99656.00;;;;2079646;28;20217;-69
2023/12/12 04:10:33;;;;;;;4.70;1.70;;;;;20.80;99657.00;;;;2070893;28;20217;-69
2023/12/12 04:11:33;;;;;;;10.40;1.90;;;;;20.80;99651.00;;;;2079704;28;20563;-69
2023/12/12 04:12:34;;;;;;;6.80;1.80;;;;;20.80;99660.00;;;;2080481;28;20742;-69
2023/12/12 04:13:34;;;;;;;4.83;2.10;;;;;20.80;99652.00;;;;2077547;28;20697;-69
2023/12/12 04:14:35;;;;;;;5.43;2.30;;;;;20.80;99650.00;;;;2078900;28;20456;-69
2023/12/12 04:15:35;;;;;;;6.30;2.00;;;;;20.80;99655.00;;;;2076862;28;20338;-69
2023/12/12 04:16:35;;;;;;;8.63;1.90;;;;;20.80;99647.00;;;;2084155;28;20614;-69
2023/12/12 04:17:36;;;;;;;3.43;1.57;;;;;20.80;99653.00;;;;2079889;28;20660;-69
2023/12/12 04:18:36;;;;;;;5.53;1.53;;;;;20.80;99652.00;;;;2079486;28;20700;-69
2023/12/12 04:19:36;;;;;;;4.23;1.90;;;;;20.80;99652.00;;;;2073780;28;20248;-69
2023/12/12 04:20:37;;;;;;;5.30;2.00;;;;;20.80;99656.00;;;;2070851;28;20218;-69
2023/12/12 04:21:37;;;;;;;7.33;1.93;;;;;20.80;99652.00;;;;2082949;28;20213;-69
2023/12/12 04:22:37;;;;;;;5.20;1.77;;;;;20.80;99661.00;;;;2082745;28;20681;-69
2023/12/12 04:23:42;;;;;;;5.00;2.20;;;;;20.80;99653.00;;;;2079441;28;20209;-69
2023/12/12 04:24:42;;;;;;;4.40;1.55;;;;;20.80;99654.00;;;;2075983;28;20221;-69
2023/12/12 04:25:43;;;;;;;4.03;1.53;;;;;20.80;99653.00;;;;2070048;28;20260;-69
2023/12/12 04:26:43;;;;;;;4.13;1.43;;;;;20.80;99650.00;;;;2078283;28;20221;-69
2023/12/12 04:27:44;;;;;;;4.30;1.50;;;;;20.80;99647.00;;;;2080020;28;20295;-69
2023/12/12 04:28:44;;;;;;;6.13;2.10;;;;;20.80;99641.00;;;;2079154;28;20221;-69
2023/12/12 04:29:44;;;;;;;5.77;1.80;;;;;20.80;99611.00;;;;2080053;28;20237;-69
2023/12/12 04:30:46;;;;;;;6.83;2.00;;;;;20.80;99638.00;;;;2068835;28;20279;-69
2023/12/12 04:31:49;;;;;;;6.07;2.20;;;;;20.80;99637.00;;;;2079496;28;20236;-69
2023/12/12 04:32:50;;;;;;;4.57;1.90;;;;;20.80;99633.00;;;;2079538;28;20678;-69
2023/12/12 04:33:50;;;;;;;5.77;2.00;;;;;20.80;99634.00;;;;2079424;28;20229;-69
2023/12/12 04:34:51;;;;;;;6.33;1.97;;;;;20.80;99625.00;;;;2069579;28;20221;-69
2023/12/12 04:35:51;;;;;;;4.30;1.73;;;;;20.80;99630.00;;;;2079953;28;20217;-69
2023/12/12 04:36:51;;;;;;;5.50;2.10;;;;;20.80;99622.00;;;;2080396;28;20589;-69
2023/12/12 04:37:52;;;;;;;5.47;1.93;;;;;20.80;99629.00;;;;2079539;28;20624;-69
2023/12/12 04:38:52;;;;;;;7.60;1.87;;;;;20.80;99625.00;;;;2080090;28;20279;-69
2023/12/12 04:39:54;;;;;;;7.03;2.20;;;;;20.80;99626.00;;;;2071777;28;20209;-67
2023/12/12 04:40:54;;;;;;;5.45;1.80;;;;;20.70;99627.00;;;;2080478;28;20210;-67
2023/12/12 04:41:54;;;;;;;4.50;1.83;;;;;20.70;99622.00;;;;2077718;28;20675;-67
2023/12/12 04:42:55;;;;;;;6.73;1.70;;;;;20.80;99622.00;;;;2086129;28;20219;-67
2023/12/12 04:43:55;;;;;;;5.80;1.80;;;;;20.80;99620.00;;;;2080420;28;20222;-67
2023/12/12 04:44:55;;;;;;;4.87;1.80;;;;;20.80;99621.00;;;;2065029;28;20582;-67
2023/12/12 04:45:56;;;;;;;5.80;2.00;;;;;20.80;99623.00;;;;2080124;28;20749;-67
2023/12/12 04:46:56;;;;;;;6.97;1.73;;;;;20.80;99620.00;;;;2079662;28;20750;-67
2023/12/12 04:47:56;;;;;;;5.73;1.90;;;;;20.70;99619.00;;;;2080047;28;20229;-67
2023/12/12 04:48:58;;;;;;;4.87;1.73;;;;;20.70;99619.00;;;;2076182;28;20233;-67
2023/12/12 04:49:58;;;;;;;6.43;1.80;;;;;20.70;99606.00;;;;2069970;28;20320;-67
2023/12/12 04:51:00;;;;;;;4.87;2.10;;;;;20.70;99612.00;;;;2080020;28;20296;-67
2023/12/12 04:52:01;;;;;;;9.35;2.38;;;;;20.80;99612.00;;;;2074601;28;20219;-68
2023/12/12 04:53:01;;;;;;;5.03;1.65;;;;;20.70;99609.00;;;;2079945;28;20209;-68
2023/12/12 04:54:01;;;;;;;4.00;1.60;;;;;20.70;99611.00;;;;2078838;28;20198;-69
2023/12/12 04:55:02;;;;;;;7.47;2.00;;;;;20.60;99611.00;;;;2069848;28;20209;-69
2023/12/12 04:56:03;;;;;;;5.97;2.00;;;;;20.70;99605.00;;;;2079738;28;20213;-69
2023/12/12 04:57:03;;;;;;;5.23;2.13;;;;;20.70;99606.00;;;;2079768;28;20209;-69
2023/12/12 04:58:03;;;;;;;5.30;2.03;;;;;20.70;99610.00;;;;2080049;28;20297;-69
2023/12/12 04:59:04;;;;;;;5.30;1.90;;;;;20.70;99611.00;;;;2079476;28;20210;-69
2023/12/12 05:00:12;;;;;;;5.80;1.90;;;;;20.70;99606.00;;;;2070769;28;20217;-69
2023/12/12 05:01:16;;;;;;;4.15;1.80;;;;;20.70;99608.00;;;;2079802;28;20560;-69
2023/12/12 05:02:16;;;;;;;5.03;2.00;;;;;20.70;99599.00;;;;2079518;28;20248;-69
2023/12/12 05:03:16;;;;;;;5.73;1.73;;;;;20.70;99611.00;;;;2079012;28;20275;-69